createdAt,value
2019-01-23T00:02:50.118Z,5.78
2019-01-23T00:07:52.669Z,5.84
2019-01-23T00:12:55.493Z,5.96
2019-01-23T00:17:58.169Z,5.99
2019-01-23T00:23:00.936Z,6.13
2019-01-23T00:28:03.929Z,6.19
2019-01-23T00:33:06.539Z,6.13
2019-01-23T00:38:09.299Z,6.07
2019-01-23T00:43:12.110Z,6.14
2019-01-23T00:48:14.735Z,6.18
2019-01-23T00:53:17.276Z,6.15
2019-01-23T00:58:19.865Z,6.20
2019-01-23T01:03:22.404Z,6.34
2019-01-23T01:08:25.069Z,6.41
2019-01-23T01:13:27.664Z,6.43
2019-01-23T01:18:30.244Z,6.43
2019-01-23T01:23:32.845Z,6.29
2019-01-23T01:28:35.382Z,6.34
2019-01-23T01:33:38.084Z,6.42
2019-01-23T01:38:40.984Z,6.48
2019-01-23T01:43:43.524Z,6.44
2019-01-23T01:48:46.054Z,6.52
2019-01-23T01:53:48.658Z,6.46
2019-01-23T01:58:51.234Z,6.48
2019-01-23T02:03:53.799Z,6.42
2019-01-23T02:08:56.551Z,6.46
2019-01-23T02:13:59.169Z,6.49
2019-01-23T02:19:02.033Z,6.46
2019-01-23T02:24:04.683Z,6.45
2019-01-23T02:29:09.616Z,6.56
2019-01-23T02:34:11.773Z,6.57
2019-01-23T02:39:14.370Z,6.40
2019-01-23T02:44:17.026Z,6.41
2019-01-23T02:49:19.619Z,6.46
2019-01-23T02:54:22.185Z,6.44
2019-01-23T02:59:24.705Z,6.55
2019-01-23T03:04:27.348Z,6.49
2019-01-23T03:09:29.850Z,6.52
2019-01-23T03:14:32.510Z,6.57
2019-01-23T03:19:35.475Z,6.64
2019-01-23T03:24:37.963Z,6.47
2019-01-23T03:29:40.511Z,6.48
2019-01-23T03:34:43.136Z,6.43
2019-01-23T03:39:45.684Z,6.44
2019-01-23T03:44:48.191Z,6.46
2019-01-23T03:49:50.868Z,6.49
2019-01-23T03:54:53.584Z,6.51
2019-01-23T03:59:56.255Z,6.40
2019-01-23T04:04:58.836Z,6.26
2019-01-23T04:10:01.392Z,6.08
2019-01-23T04:15:06.567Z,6.04
2019-01-23T04:20:12.049Z,5.96
2019-01-23T04:25:14.886Z,5.88
2019-01-23T04:30:19.718Z,5.87
2019-01-23T04:35:22.233Z,6.01
2019-01-23T04:40:24.805Z,6.26
2019-01-23T04:45:27.386Z,6.28
2019-01-23T04:50:31.093Z,6.41
2019-01-23T04:55:34.873Z,6.57
2019-01-23T05:00:37.366Z,6.64
2019-01-23T05:05:40.109Z,6.51
2019-01-23T05:10:42.706Z,6.32
2019-01-23T05:15:45.341Z,6.25
2019-01-23T05:20:47.939Z,6.27
2019-01-23T05:25:50.527Z,6.25
2019-01-23T05:30:53.488Z,6.27
2019-01-23T05:35:56.073Z,6.24
2019-01-23T05:40:58.653Z,6.21
2019-01-23T05:46:01.360Z,6.19
2019-01-23T05:51:03.839Z,6.18
2019-01-23T05:56:06.414Z,6.24
2019-01-23T06:01:08.900Z,6.23
2019-01-23T06:06:11.634Z,6.14
2019-01-23T06:11:14.257Z,6.16
2019-01-23T06:16:16.906Z,6.28
2019-01-23T06:21:19.424Z,6.45
2019-01-23T06:26:22.048Z,6.42
2019-01-23T06:31:24.785Z,6.42
2019-01-23T06:36:27.475Z,6.44
2019-01-23T06:41:30.124Z,6.45
2019-01-23T06:46:32.735Z,6.51
2019-01-23T06:51:35.294Z,5.94
2019-01-23T06:56:37.898Z,5.56
2019-01-23T07:01:40.474Z,5.56
2019-01-23T07:06:43.019Z,5.67
2019-01-23T07:11:45.597Z,5.91
2019-01-23T07:16:48.966Z,6.04
2019-01-23T07:21:51.444Z,6.13
2019-01-23T07:26:53.945Z,6.24
2019-01-23T07:31:56.654Z,6.24
2019-01-23T07:36:59.290Z,6.36
2019-01-23T07:42:01.898Z,6.38
2019-01-23T07:47:04.610Z,6.27
2019-01-23T07:52:07.373Z,6.15
2019-01-23T07:57:10.038Z,6.16
2019-01-23T08:02:12.681Z,6.12
2019-01-23T08:07:15.169Z,6.14
2019-01-23T08:12:17.819Z,6.20
2019-01-23T08:17:20.534Z,6.09
2019-01-23T08:22:23.226Z,6.05
2019-01-23T08:27:25.818Z,6.10
2019-01-23T08:32:28.970Z,6.36
2019-01-23T08:37:31.710Z,6.24
2019-01-23T08:42:34.321Z,6.31
2019-01-23T08:47:37.094Z,6.33
2019-01-23T08:52:39.773Z,6.42
2019-01-23T08:57:42.501Z,6.32
2019-01-23T09:02:45.401Z,6.39
2019-01-23T09:07:48.010Z,6.51
2019-01-23T09:12:50.875Z,6.49
2019-01-23T09:17:53.574Z,6.43
2019-01-23T09:22:56.361Z,6.52
2019-01-23T09:27:59.093Z,6.56
2019-01-23T09:33:16.534Z,6.54
2019-01-23T09:38:35.355Z,6.69
2019-01-23T09:43:53.196Z,7.01
2019-01-23T09:49:08.115Z,6.87
2019-01-23T09:54:13.694Z,6.89
2019-01-23T09:59:16.267Z,6.72
2019-01-23T10:04:19.081Z,6.71
2019-01-23T10:09:21.815Z,6.89
2019-01-23T10:14:24.434Z,7.13
2019-01-23T10:19:27.306Z,7.21
2019-01-23T10:24:35.810Z,7.31
2019-01-23T10:29:34.414Z,7.22
2019-01-23T10:34:37.062Z,7.21
2019-01-23T10:39:39.870Z,7.22
2019-01-23T10:44:42.553Z,7.52
2019-01-23T10:49:45.274Z,7.74
2019-01-23T10:54:47.836Z,7.60
2019-01-23T10:59:50.270Z,7.37
2019-01-23T11:04:52.793Z,7.67
2019-01-23T11:09:55.277Z,8.61
2019-01-23T11:14:58.115Z,8.15
2019-01-23T11:20:00.854Z,7.71
2019-01-23T11:25:04.633Z,7.88
2019-01-23T11:30:11.143Z,8.03
2019-01-23T11:35:14.174Z,7.97
2019-01-23T11:40:19.795Z,8.06
2019-01-23T11:45:23.034Z,8.29
2019-01-23T11:50:25.795Z,8.21
2019-01-23T11:55:28.608Z,8.30
2019-01-23T12:00:33.532Z,8.23
2019-01-23T12:05:36.213Z,8.16
2019-01-23T12:10:38.738Z,7.88
2019-01-23T12:15:41.353Z,7.69
2019-01-23T12:20:43.945Z,7.73
2019-01-23T12:25:46.513Z,7.56
2019-01-23T12:30:49.450Z,7.57
2019-01-23T12:35:52.354Z,7.41
2019-01-23T12:40:55.109Z,7.43
2019-01-23T12:45:58.030Z,7.74
2019-01-23T12:51:00.882Z,8.00
2019-01-23T12:56:04.995Z,7.77
2019-01-23T13:01:07.670Z,7.61
2019-01-23T13:06:10.406Z,7.14
2019-01-23T13:11:13.131Z,6.90
2019-01-23T13:16:15.949Z,6.85
2019-01-23T13:21:18.793Z,6.92
2019-01-23T13:26:21.414Z,6.78
2019-01-23T13:31:24.309Z,6.78
2019-01-23T13:36:26.854Z,6.77
2019-01-23T13:41:29.570Z,6.76
2019-01-23T13:46:32.254Z,6.84
2019-01-23T13:51:35.034Z,6.88
2019-01-23T13:56:37.592Z,6.93
2019-01-23T14:01:40.175Z,6.83
2019-01-23T14:06:43.173Z,6.91
2019-01-23T14:11:45.813Z,7.01
2019-01-23T14:16:48.413Z,7.13
2019-01-23T14:21:51.213Z,7.26
2019-01-23T14:26:53.933Z,7.17
2019-01-23T14:32:03.094Z,7.34
2019-01-23T14:37:01.391Z,7.37
2019-01-23T14:42:03.994Z,7.58
2019-01-23T14:47:06.734Z,7.36
2019-01-23T14:52:09.674Z,7.38
2019-01-23T14:57:12.312Z,7.39
2019-01-23T15:02:14.870Z,7.35
2019-01-23T15:07:17.633Z,7.44
2019-01-23T15:12:20.270Z,7.39
2019-01-23T15:17:22.894Z,7.42
2019-01-23T15:22:25.575Z,7.38
2019-01-23T15:27:28.229Z,7.33
2019-01-23T15:32:30.850Z,7.29
2019-01-23T15:37:33.634Z,7.31
2019-01-23T15:42:36.329Z,7.26
2019-01-23T15:47:39.190Z,7.23
2019-01-23T15:52:41.870Z,7.23
2019-01-23T15:57:44.734Z,7.17
2019-01-23T16:02:48.612Z,7.21
2019-01-23T16:07:51.473Z,7.11
2019-01-23T16:12:54.074Z,7.04
2019-01-23T16:17:57.554Z,7.05
2019-01-23T16:23:00.793Z,7.01
2019-01-23T16:28:03.354Z,6.97
2019-01-23T16:33:06.693Z,7.00
2019-01-23T16:38:10.781Z,6.97
2019-01-23T16:43:13.414Z,6.92
2019-01-23T16:48:16.174Z,6.96
2019-01-23T16:53:18.969Z,6.91
2019-01-23T16:58:21.974Z,6.82
2019-01-23T17:03:24.714Z,6.71
2019-01-23T17:08:27.413Z,6.61
2019-01-23T17:13:30.138Z,6.62
2019-01-23T17:18:32.933Z,6.65
2019-01-23T17:23:35.833Z,6.64
2019-01-23T17:28:38.554Z,6.70
2019-01-23T17:33:41.414Z,6.77
2019-01-23T17:38:44.294Z,6.76
2019-01-23T17:43:47.433Z,6.82
2019-01-23T17:48:50.094Z,6.81
2019-01-23T17:53:52.993Z,6.83
2019-01-23T17:58:55.474Z,6.83
2019-01-23T18:03:58.211Z,6.83
2019-01-23T18:09:01.069Z,6.77
2019-01-23T18:14:03.795Z,6.74
2019-01-23T18:19:06.729Z,6.79
2019-01-23T18:24:09.582Z,6.85
2019-01-23T18:29:12.396Z,6.78
2019-01-23T18:34:33.434Z,6.75
2019-01-23T18:40:01.294Z,6.81
2019-01-23T18:45:22.306Z,6.78
2019-01-23T18:50:53.273Z,6.76
2019-01-23T18:55:56.035Z,6.73
2019-01-23T19:00:58.593Z,6.83
2019-01-23T19:06:01.570Z,6.81
2019-01-23T19:11:04.610Z,6.79
2019-01-23T19:16:08.049Z,6.96
2019-01-23T19:21:10.876Z,7.04
2019-01-23T19:26:13.755Z,7.11
2019-01-23T19:31:16.474Z,7.17
2019-01-23T19:36:18.994Z,7.26
2019-01-23T19:41:21.689Z,7.56
2019-01-23T19:46:24.414Z,7.59
2019-01-23T19:51:27.197Z,7.78
2019-01-23T19:56:29.914Z,7.82
2019-01-23T20:01:32.575Z,7.76
2019-01-23T20:06:35.216Z,7.50
2019-01-23T20:11:39.073Z,7.59
2019-01-23T20:16:41.774Z,7.73
2019-01-23T20:21:44.446Z,7.94
2019-01-23T20:26:47.214Z,8.03
2019-01-23T20:31:49.725Z,7.92
2019-01-23T20:36:52.275Z,8.12
2019-01-23T20:41:55.077Z,8.04
2019-01-23T20:46:57.801Z,8.18
2019-01-23T20:52:00.549Z,8.08
2019-01-23T20:57:03.274Z,8.02
2019-01-23T21:02:06.173Z,7.95
2019-01-23T21:07:12.448Z,8.07
2019-01-23T21:12:18.644Z,8.20
2019-01-23T21:17:19.495Z,8.20
2019-01-23T21:22:22.194Z,8.27
2019-01-23T21:27:25.522Z,8.30
2019-01-23T21:32:28.354Z,8.26
2019-01-23T21:37:30.934Z,8.11
2019-01-23T21:42:33.534Z,8.19
2019-01-23T21:47:36.436Z,8.32
2019-01-23T21:52:39.294Z,8.54
2019-01-23T21:57:42.034Z,8.61
2019-01-23T22:02:44.617Z,8.35
2019-01-23T22:07:47.353Z,8.33
2019-01-23T22:12:50.049Z,8.31
2019-01-23T22:17:52.874Z,8.36
2019-01-23T22:22:55.481Z,8.46
2019-01-23T22:27:58.194Z,8.56
2019-01-23T22:33:01.015Z,8.55
2019-01-23T22:38:04.777Z,8.48
2019-01-23T22:43:07.714Z,8.59
2019-01-23T22:48:10.474Z,8.76
2019-01-23T22:53:13.093Z,8.73
2019-01-23T22:58:15.801Z,8.85
2019-01-23T23:03:20.089Z,8.81
2019-01-23T23:08:22.814Z,8.68
2019-01-23T23:13:25.417Z,8.66
2019-01-23T23:18:28.035Z,8.69
2019-01-23T23:23:30.673Z,8.67
2019-01-23T23:28:33.394Z,8.41
2019-01-23T23:33:35.934Z,8.42
2019-01-23T23:38:38.674Z,8.50
2019-01-23T23:43:41.454Z,8.50
2019-01-23T23:48:44.229Z,8.52
2019-01-23T23:53:47.114Z,8.71
2019-01-23T23:58:49.714Z,8.63
